Time;durP1;ratioP1;P1;durP2;ratioP2;P2;SDS_P1;SDS_P2;PMS_P1;PMS_P2;Temp;Humidity;BMP_temperature;BMP_pressure;BME280_temperature;BME280_humidity;BME280_pressure;Samples;Min_cycle;Max_cycle;Signal;HPM_P1;HPM_P2
2022/04/24 00:01:47;;;;;;;;;;;22.30;32.40;;;;;;8365000;28;20289;-45
2022/04/24 00:05:47;;;;;;;;;;;22.30;32.40;;;;;;8364923;28;20071;-45
2022/04/24 00:09:48;;;;;;;;;;;22.20;32.40;;;;;;8364839;28;19942;-45
2022/04/24 00:13:48;;;;;;;;;;;22.30;32.40;;;;;;8364820;28;20298;-45
2022/04/24 00:17:49;;;;;;;;;;;22.20;32.40;;;;;;8364039;28;20301;-45
2022/04/24 00:21:49;;;;;;;;;;;22.20;32.50;;;;;;8364745;28;20430;-45
2022/04/24 00:25:50;;;;;;;;;;;22.20;32.50;;;;;;8364134;28;19928;-46
2022/04/24 00:29:51;;;;;;;;;;;22.20;32.50;;;;;;8363866;28;20019;-45
2022/04/24 00:33:51;;;;;;;;;;;22.10;32.50;;;;;;8364684;28;20358;-46
2022/04/24 00:37:52;;;;;;;;;;;22.10;32.50;;;;;;8363325;28;20023;-45
2022/04/24 00:41:52;;;;;;;;;;;22.10;32.60;;;;;;8363358;28;20377;-45
2022/04/24 00:45:59;;;;;;;;;;;22.10;32.60;;;;;;8363720;28;19917;-46
2022/04/24 00:50:00;;;;;;;;;;;22.00;32.60;;;;;;8363760;28;19916;-46
2022/04/24 00:54:01;;;;;;;;;;;22.00;32.70;;;;;;8363206;28;19979;-46
2022/04/24 00:58:02;;;;;;;;;;;22.00;32.80;;;;;;8363544;28;19947;-46
2022/04/24 01:02:03;;;;;;;;;;;22.00;32.80;;;;;;8363445;28;20263;-46
2022/04/24 01:06:03;;;;;;;;;;;22.00;32.90;;;;;;8362652;28;20438;-46
2022/04/24 01:10:04;;;;;;;;;;;21.90;32.80;;;;;;8362309;28;20350;-47
2022/04/24 01:14:05;;;;;;;;;;;21.90;32.90;;;;;;8363220;28;19916;-46
2022/04/24 01:18:06;;;;;;;;;;;21.90;33.00;;;;;;8362435;28;19925;-48
2022/04/24 01:22:06;;;;;;;;;;;21.90;33.00;;;;;;8362940;28;19952;-48
2022/04/24 01:26:07;;;;;;;;;;;21.90;33.60;;;;;;8362859;28;19913;-47
2022/04/24 01:30:08;;;;;;;;;;;21.90;33.10;;;;;;8362452;28;19924;-44
2022/04/24 01:34:08;;;;;;;;;;;21.80;33.10;;;;;;8363000;28;19996;-46
2022/04/24 01:38:08;;;;;;;;;;;21.80;33.10;;;;;;8362723;28;20270;-46
2022/04/24 01:42:09;;;;;;;;;;;21.80;33.60;;;;;;8362559;28;19921;-46
2022/04/24 01:46:10;;;;;;;;;;;21.80;33.10;;;;;;8373595;28;19909;-47
2022/04/24 01:50:10;;;;;;;;;;;21.80;33.10;;;;;;8335656;28;19917;-45
2022/04/24 01:54:11;;;;;;;;;;;21.80;33.10;;;;;;8335761;28;19924;-45
2022/04/24 01:58:11;;;;;;;;;;;21.70;33.10;;;;;;8335854;28;19948;-45
2022/04/24 02:02:11;;;;;;;;;;;21.70;33.20;;;;;;8335749;28;20362;-47
2022/04/24 02:06:12;;;;;;;;;;;21.70;33.20;;;;;;8335040;28;19925;-45
2022/04/24 02:10:13;;;;;;;;;;;21.60;33.20;;;;;;8335541;28;19913;-45
2022/04/24 02:14:14;;;;;;;;;;;21.70;33.20;;;;;;8335626;28;19928;-45
2022/04/24 02:18:14;;;;;;;;;;;21.60;33.10;;;;;;8334723;28;19952;-45
2022/04/24 02:22:15;;;;;;;;;;;21.60;33.10;;;;;;8335403;28;19918;-45
2022/04/24 02:26:15;;;;;;;;;;;21.60;33.00;;;;;;8335107;28;19948;-45
2022/04/24 02:30:16;;;;;;;;;;;21.60;33.00;;;;;;8381917;28;19921;-44
2022/04/24 02:34:16;;;;;;;;;;;21.60;33.00;;;;;;8398526;28;19923;-46
2022/04/24 02:38:16;;;;;;;;;;;21.60;33.00;;;;;;8350088;28;19925;-45
2022/04/24 02:42:17;;;;;;;;;;;21.60;33.00;;;;;;8334030;28;20012;-45
2022/04/24 02:46:18;;;;;;;;;;;21.60;33.00;;;;;;8334329;28;19924;-46
2022/04/24 02:50:18;;;;;;;;;;;21.60;33.00;;;;;;8334534;28;20286;-45
2022/04/24 02:54:19;;;;;;;;;;;21.60;33.10;;;;;;8333633;28;19917;-45
2022/04/24 02:58:21;;;;;;;;;;;21.50;33.10;;;;;;8333755;28;19925;-45
2022/04/24 03:02:21;;;;;;;;;;;21.50;33.10;;;;;;8333533;28;19913;-45
2022/04/24 03:06:22;;;;;;;;;;;21.50;33.00;;;;;;8333098;28;19921;-45
2022/04/24 03:10:22;;;;;;;;;;;21.50;33.00;;;;;;8334181;28;19921;-46
2022/04/24 03:14:23;;;;;;;;;;;21.50;33.00;;;;;;8333533;28;19971;-45
2022/04/24 03:18:23;;;;;;;;;;;21.50;33.10;;;;;;8332938;28;19933;-45
2022/04/24 03:22:24;;;;;;;;;;;21.50;33.20;;;;;;8333607;28;19937;-46
2022/04/24 03:26:25;;;;;;;;;;;21.50;33.10;;;;;;8333316;28;19917;-46
2022/04/24 03:30:25;;;;;;;;;;;21.50;33.10;;;;;;8332949;28;20333;-47
2022/04/24 03:34:26;;;;;;;;;;;21.60;33.10;;;;;;8332899;28;19973;-46
2022/04/24 03:38:27;;;;;;;;;;;21.60;33.00;;;;;;8332723;28;19921;-46
2022/04/24 03:42:28;;;;;;;;;;;21.60;33.00;;;;;;8332078;28;20530;-46
2022/04/24 03:46:28;;;;;;;;;;;21.60;33.00;;;;;;8332678;28;19963;-47
2022/04/24 03:50:28;;;;;;;;;;;21.60;33.00;;;;;;8332747;28;19918;-47
2022/04/24 03:54:30;;;;;;;;;;;21.70;33.00;;;;;;8331930;28;20363;-48
2022/04/24 03:58:30;;;;;;;;;;;21.70;32.90;;;;;;8332279;28;19956;-46
2022/04/24 04:02:31;;;;;;;;;;;21.70;32.90;;;;;;8345701;28;20378;-46
2022/04/24 04:06:31;;;;;;;;;;;21.80;32.90;;;;;;8350788;28;19925;-46
2022/04/24 04:10:32;;;;;;;;;;;21.80;32.90;;;;;;8332041;28;20279;-47
2022/04/24 04:14:32;;;;;;;;;;;21.80;32.80;;;;;;8331457;28;20008;-47
2022/04/24 04:18:33;;;;;;;;;;;21.80;32.80;;;;;;8331492;28;19925;-46
2022/04/24 04:22:42;;;;;;;;;;;21.80;32.80;;;;;;8331586;28;20010;-47
2022/04/24 04:26:43;;;;;;;;;;;21.80;32.80;;;;;;8330866;28;19920;-46
2022/04/24 04:30:43;;;;;;;;;;;21.90;32.80;;;;;;8331674;28;19928;-47
2022/04/24 04:34:44;;;;;;;;;;;21.90;32.80;;;;;;8331679;28;19924;-46
2022/04/24 04:38:44;;;;;;;;;;;21.90;32.90;;;;;;8330804;28;19925;-45
2022/04/24 04:42:45;;;;;;;;;;;21.90;32.80;;;;;;8330784;28;19917;-47
2022/04/24 04:46:45;;;;;;;;;;;22.00;32.80;;;;;;8330709;28;20293;-46
2022/04/24 04:50:46;;;;;;;;;;;22.00;32.80;;;;;;8330398;28;19943;-46
2022/04/24 04:54:46;;;;;;;;;;;22.00;32.80;;;;;;8330894;28;20290;-46
2022/04/24 04:58:47;;;;;;;;;;;22.00;32.80;;;;;;8330314;28;19932;-46
2022/04/24 05:02:47;;;;;;;;;;;22.10;32.80;;;;;;8329718;28;20449;-46
2022/04/24 05:06:48;;;;;;;;;;;22.10;32.70;;;;;;8330295;28;19928;-49
2022/04/24 05:10:48;;;;;;;;;;;22.10;32.70;;;;;;8330489;28;19917;-46
2022/04/24 05:14:48;;;;;;;;;;;22.10;32.70;;;;;;8329823;28;20023;-47
2022/04/24 05:18:49;;;;;;;;;;;22.20;32.80;;;;;;8329923;28;19971;-46
2022/04/24 05:22:49;;;;;;;;;;;22.20;32.80;;;;;;8334068;28;19917;-46
2022/04/24 05:26:50;;;;;;;;;;;22.20;32.70;;;;;;8340507;28;20395;-47
2022/04/24 05:30:50;;;;;;;;;;;22.20;32.70;;;;;;8341338;28;20371;-47
2022/04/24 05:34:52;;;;;;;;;;;22.20;32.70;;;;;;8340842;28;19918;-47
2022/04/24 05:38:52;;;;;;;;;;;22.20;32.70;;;;;;8340156;28;20016;-46
2022/04/24 05:42:54;;;;;;;;;;;22.30;32.80;;;;;;8340556;28;20081;-46
2022/04/24 05:46:54;;;;;;;;;;;22.30;32.80;;;;;;8340811;28;19917;-47
2022/04/24 05:50:55;;;;;;;;;;;22.30;32.70;;;;;;8340327;28;19975;-45
2022/04/24 05:54:57;;;;;;;;;;;22.30;32.70;;;;;;8340975;28;19944;-46
2022/04/24 05:58:57;;;;;;;;;;;22.30;32.70;;;;;;8340318;28;19931;-46
2022/04/24 06:02:59;;;;;;;;;;;22.40;32.70;;;;;;8339881;28;19921;-46
2022/04/24 06:07:00;;;;;;;;;;;22.40;32.70;;;;;;8340676;28;19933;-48
2022/04/24 06:11:00;;;;;;;;;;;22.40;32.70;;;;;;8340426;28;20327;-47
2022/04/24 06:15:02;;;;;;;;;;;22.40;32.70;;;;;;8339786;28;20029;-46
2022/04/24 06:19:02;;;;;;;;;;;22.40;32.60;;;;;;8340416;28;19943;-47
2022/04/24 06:23:04;;;;;;;;;;;22.50;32.70;;;;;;8321775;28;22022;-48
2022/04/24 06:27:04;;;;;;;;;;;22.50;32.70;;;;;;8339616;28;19913;-46
2022/04/24 06:31:05;;;;;;;;;;;22.50;32.70;;;;;;8340212;28;19975;-46
2022/04/24 06:35:06;;;;;;;;;;;22.50;32.70;;;;;;8335602;28;19925;-46
2022/04/24 06:39:06;;;;;;;;;;;22.50;32.70;;;;;;8316491;28;19921;-46
2022/04/24 06:43:07;;;;;;;;;;;22.50;32.70;;;;;;8334502;28;19924;-46
2022/04/24 06:47:07;;;;;;;;;;;22.60;32.70;;;;;;8334536;28;20344;-45
2022/04/24 06:51:08;;;;;;;;;;;22.50;32.70;;;;;;8334110;28;19917;-47
2022/04/24 06:55:08;;;;;;;;;;;22.60;32.70;;;;;;8334350;28;19924;-47
2022/04/24 06:59:09;;;;;;;;;;;22.60;32.70;;;;;;8334246;28;19923;-45
2022/04/24 07:03:10;;;;;;;;;;;22.60;32.70;;;;;;8333446;28;20404;-45
2022/04/24 07:07:10;;;;;;;;;;;22.60;32.70;;;;;;8333743;28;20277;-46
2022/04/24 07:11:10;;;;;;;;;;;22.60;32.70;;;;;;8316221;28;20366;-46
2022/04/24 07:15:11;;;;;;;;;;;22.60;32.70;;;;;;8333047;28;20393;-45
2022/04/24 07:19:11;;;;;;;;;;;22.70;32.70;;;;;;8315389;28;20031;-47
2022/04/24 07:23:12;;;;;;;;;;;22.70;32.70;;;;;;8333291;28;19921;-48
2022/04/24 07:27:12;;;;;;;;;;;22.70;32.70;;;;;;8332327;28;20330;-46
2022/04/24 07:31:14;;;;;;;;;;;22.70;32.70;;;;;;8399511;28;19920;-47
2022/04/24 07:35:15;;;;;;;;;;;22.70;32.70;;;;;;8348536;28;20570;-46
2022/04/24 07:39:16;;;;;;;;;;;22.70;32.60;;;;;;8332312;28;20382;-46
2022/04/24 07:43:16;;;;;;;;;;;22.80;32.60;;;;;;8332591;28;19959;-47
2022/04/24 07:47:17;;;;;;;;;;;22.80;32.60;;;;;;8332356;28;19969;-46
2022/04/24 07:51:17;;;;;;;;;;;22.80;32.60;;;;;;8331908;28;19928;-46
2022/04/24 07:55:19;;;;;;;;;;;22.80;32.60;;;;;;8332685;28;19921;-48
2022/04/24 07:59:19;;;;;;;;;;;22.80;32.60;;;;;;8332138;28;20383;-46
2022/04/24 08:03:19;;;;;;;;;;;22.80;32.60;;;;;;8331399;28;19921;-46
2022/04/24 08:07:22;;;;;;;;;;;22.90;32.60;;;;;;8331938;28;20003;-47
2022/04/24 08:11:22;;;;;;;;;;;22.80;32.60;;;;;;8331750;28;19928;-46
2022/04/24 08:15:23;;;;;;;;;;;22.90;32.60;;;;;;8331313;28;20370;-46
2022/04/24 08:19:24;;;;;;;;;;;22.90;32.60;;;;;;8331327;28;19917;-47
2022/04/24 08:23:25;;;;;;;;;;;22.90;32.60;;;;;;8331263;28;20282;-47
2022/04/24 08:27:26;;;;;;;;;;;22.90;32.60;;;;;;8330984;28;19936;-46
2022/04/24 08:31:26;;;;;;;;;;;22.90;32.60;;;;;;8330947;28;19917;-48
2022/04/24 08:35:27;;;;;;;;;;;22.90;32.60;;;;;;8330890;28;20294;-46
2022/04/24 08:39:32;;;;;;;;;;;22.90;32.60;;;;;;8330447;28;20453;-46
2022/04/24 08:43:32;;;;;;;;;;;22.90;32.60;;;;;;8330970;28;19960;-47
2022/04/24 08:47:32;;;;;;;;;;;23.00;32.60;;;;;;8330477;28;20440;-46
2022/04/24 08:51:33;;;;;;;;;;;23.00;32.60;;;;;;8330590;28;19917;-46
2022/04/24 08:55:34;;;;;;;;;;;23.00;32.60;;;;;;8330671;28;19921;-46
2022/04/24 08:59:38;;;;;;;;;;;23.00;32.60;;;;;;8329201;28;19925;-47
2022/04/24 09:03:38;;;;;;;;;;;23.00;32.50;;;;;;8330571;28;20340;-48
2022/04/24 09:07:43;;;;;;;;;;;23.00;32.50;;;;;;8330376;28;19914;-46
2022/04/24 09:11:44;;;;;;;;;;;23.00;32.50;;;;;;8329787;28;19956;-49
2022/04/24 09:15:52;;;;;;;;;;;23.00;32.50;;;;;;8330393;28;19925;-46
2022/04/24 09:19:53;;;;;;;;;;;23.00;32.50;;;;;;8330103;28;19921;-47
2022/04/24 09:23:57;;;;;;;;;;;23.00;32.50;;;;;;8329405;28;19921;-47
2022/04/24 09:27:58;;;;;;;;;;;23.00;32.50;;;;;;8330083;28;20000;-46
2022/04/24 09:31:58;;;;;;;;;;;23.10;32.50;;;;;;8362916;28;19920;-46
2022/04/24 09:35:59;;;;;;;;;;;23.10;32.50;;;;;;8362245;28;19928;-47
2022/04/24 09:40:00;;;;;;;;;;;23.10;32.50;;;;;;8362869;28;20457;-46
2022/04/24 09:44:10;;;;;;;;;;;23.10;32.50;;;;;;8362735;28;19924;-46
2022/04/24 09:48:14;;;;;;;;;;;23.20;32.50;;;;;;8362167;28;19929;-46
2022/04/24 09:52:16;;;;;;;;;;;23.20;32.50;;;;;;8362780;28;20384;-46
2022/04/24 09:56:17;;;;;;;;;;;23.10;32.50;;;;;;8362303;28;20325;-47
2022/04/24 10:00:18;;;;;;;;;;;23.10;32.40;;;;;;8361864;28;20046;-46
2022/04/24 10:04:19;;;;;;;;;;;23.20;32.50;;;;;;8362366;28;19931;-46
2022/04/24 10:08:19;;;;;;;;;;;23.20;32.40;;;;;;8359085;28;19996;-46
2022/04/24 10:12:20;;;;;;;;;;;23.20;32.40;;;;;;8335228;28;19918;-45
2022/04/24 10:16:21;;;;;;;;;;;23.20;32.50;;;;;;8335405;28;20404;-46
2022/04/24 10:20:39;;;;;;;;;;;23.20;32.40;;;;;;8335167;28;19917;-46
2022/04/24 10:24:41;;;;;;;;;;;23.30;32.40;;;;;;8334808;28;19996;-46
2022/04/24 10:28:44;;;;;;;;;;;23.30;32.40;;;;;;8335097;28;19913;-46
2022/04/24 10:32:48;;;;;;;;;;;23.30;32.40;;;;;;8334623;28;19936;-47
2022/04/24 10:36:58;;;;;;;;;;;23.30;32.40;;;;;;8334883;28;20015;-47
2022/04/24 10:41:00;;;;;;;;;;;23.30;32.40;;;;;;8334483;28;19925;-48
2022/04/24 10:45:05;;;;;;;;;;;23.30;32.40;;;;;;8334172;28;20313;-48
2022/04/24 10:49:08;;;;;;;;;;;23.30;32.40;;;;;;8334380;28;20063;-45
2022/04/24 10:53:09;;;;;;;;;;;23.30;32.40;;;;;;8334367;28;19960;-46
2022/04/24 10:57:17;;;;;;;;;;;23.40;32.40;;;;;;8333884;28;19932;-45
2022/04/24 11:01:18;;;;;;;;;;;23.40;32.40;;;;;;8334155;28;19921;-50
2022/04/24 11:05:19;;;;;;;;;;;23.40;32.40;;;;;;8333759;28;19924;-46
2022/04/24 11:09:20;;;;;;;;;;;23.40;32.40;;;;;;8333195;28;20285;-46
2022/04/24 11:13:21;;;;;;;;;;;23.40;32.40;;;;;;8334104;28;19913;-46
2022/04/24 11:17:22;;;;;;;;;;;23.40;32.40;;;;;;8333363;28;19925;-46
2022/04/24 11:21:23;;;;;;;;;;;23.40;32.40;;;;;;8332120;28;20370;-46
2022/04/24 11:25:25;;;;;;;;;;;23.40;32.40;;;;;;8333315;28;19948;-46
2022/04/24 11:29:25;;;;;;;;;;;23.40;32.40;;;;;;8333095;28;19918;-46
2022/04/24 11:33:26;;;;;;;;;;;23.40;32.40;;;;;;8332648;28;19913;-48
2022/04/24 11:37:26;;;;;;;;;;;23.40;32.40;;;;;;8332734;28;19972;-47
2022/04/24 11:41:28;;;;;;;;;;;23.50;32.50;;;;;;8332739;28;19924;-47
2022/04/24 11:54:12;;;;;;;;;;;23.50;32.50;;;;;;8332697;28;20393;-46
2022/04/24 11:58:12;;;;;;;;;;;23.50;32.40;;;;;;8332522;28;20193;-50
2022/04/24 12:02:14;;;;;;;;;;;23.50;32.50;;;;;;8332028;28;19928;-47
2022/04/24 12:06:15;;;;;;;;;;;23.50;32.50;;;;;;8331158;28;19928;-49
2022/04/24 12:10:15;;;;;;;;;;;23.60;32.50;;;;;;8331537;28;19913;-46
2022/04/24 12:14:17;;;;;;;;;;;23.50;32.50;;;;;;8331704;28;19925;-47
2022/04/24 12:18:25;;;;;;;;;;;23.50;32.50;;;;;;8331122;28;19929;-48
2022/04/24 12:22:29;;;;;;;;;;;23.60;32.60;;;;;;8331519;28;19996;-46
2022/04/24 12:26:30;;;;;;;;;;;23.50;32.50;;;;;;8330829;28;19913;-48
2022/04/24 12:30:34;;;;;;;;;;;23.60;32.50;;;;;;8331015;28;19917;-48
2022/04/24 12:34:38;;;;;;;;;;;23.60;32.60;;;;;;8330173;28;19921;-46
2022/04/24 12:38:38;;;;;;;;;;;23.60;32.60;;;;;;8330860;28;20389;-47
2022/04/24 12:42:39;;;;;;;;;;;23.60;32.50;;;;;;8331067;28;19924;-47
2022/04/24 12:46:39;;;;;;;;;;;23.60;32.50;;;;;;8330892;28;20374;-48
2022/04/24 12:50:40;;;;;;;;;;;23.60;32.50;;;;;;8330167;28;20354;-47
2022/04/24 12:54:40;;;;;;;;;;;23.70;32.60;;;;;;8330629;28;19924;-46
2022/04/24 12:58:41;;;;;;;;;;;23.60;32.50;;;;;;8330800;28;19925;-50
2022/04/24 13:02:42;;;;;;;;;;;23.60;32.60;;;;;;8330365;28;19931;-49
2022/04/24 13:06:43;;;;;;;;;;;23.60;32.60;;;;;;8330597;28;19921;-47
2022/04/24 13:10:43;;;;;;;;;;;23.60;32.60;;;;;;8337395;28;19927;-47
2022/04/24 13:14:43;;;;;;;;;;;23.60;32.60;;;;;;8362770;28;19920;-50
2022/04/24 13:18:44;;;;;;;;;;;23.60;32.60;;;;;;8363554;28;19924;-46
2022/04/24 13:22:44;;;;;;;;;;;23.60;32.60;;;;;;8363186;28;19970;-48
2022/04/24 13:26:45;;;;;;;;;;;23.60;32.60;;;;;;8362569;28;19923;-47
2022/04/24 13:30:46;;;;;;;;;;;23.60;32.60;;;;;;8362868;28;19924;-47
2022/04/24 13:34:47;;;;;;;;;;;23.60;32.60;;;;;;8362711;28;19992;-46
2022/04/24 13:38:48;;;;;;;;;;;23.60;32.70;;;;;;8362333;28;19921;-46
2022/04/24 13:42:49;;;;;;;;;;;23.70;32.70;;;;;;8363210;28;20348;-46
2022/04/24 13:46:50;;;;;;;;;;;23.70;32.70;;;;;;8369305;28;19963;-48
2022/04/24 13:50:50;;;;;;;;;;;23.70;32.80;;;;;;8368591;28;19923;-46
2022/04/24 13:54:53;;;;;;;;;;;23.70;32.80;;;;;;8369516;28;19944;-49
2022/04/24 13:58:54;;;;;;;;;;;23.70;32.80;;;;;;8369166;28;19936;-48
2022/04/24 14:02:55;;;;;;;;;;;23.70;32.70;;;;;;8368216;28;20034;-47
2022/04/24 14:06:55;;;;;;;;;;;23.70;32.80;;;;;;8368633;28;19916;-46
2022/04/24 14:11:00;;;;;;;;;;;23.70;32.80;;;;;;8368635;28;19924;-47
2022/04/24 14:15:00;;;;;;;;;;;23.70;32.80;;;;;;8368001;28;19917;-46
2022/04/24 14:19:01;;;;;;;;;;;23.70;32.70;;;;;;8368642;28;20400;-48
2022/04/24 14:23:03;;;;;;;;;;;23.70;32.70;;;;;;8368276;28;19963;-47
2022/04/24 14:27:04;;;;;;;;;;;23.70;32.70;;;;;;8367684;28;19921;-46
2022/04/24 14:31:05;;;;;;;;;;;23.70;32.70;;;;;;8367961;28;19924;-49
2022/04/24 14:35:06;;;;;;;;;;;23.70;32.70;;;;;;8367923;28;19913;-47
2022/04/24 14:39:07;;;;;;;;;;;23.70;32.70;;;;;;8367547;28;19924;-47
2022/04/24 14:43:09;;;;;;;;;;;23.70;32.70;;;;;;8367502;28;19970;-46
2022/04/24 14:55:49;;;;;;;;;;;23.70;32.60;;;;;;8366225;28;19951;-48
2022/04/24 14:59:49;;;;;;;;;;;23.70;32.60;;;;;;8366970;28;20390;-46
2022/04/24 15:03:50;;;;;;;;;;;23.70;32.60;;;;;;8366793;28;19921;-46
2022/04/24 15:07:50;;;;;;;;;;;23.70;32.60;;;;;;8366735;28;19923;-47
2022/04/24 15:11:51;;;;;;;;;;;23.70;32.60;;;;;;8366003;28;20376;-47
2022/04/24 15:15:51;;;;;;;;;;;23.70;32.60;;;;;;8366460;28;19920;-48
2022/04/24 15:19:52;;;;;;;;;;;23.70;32.70;;;;;;8366892;28;19921;-46
2022/04/24 15:23:54;;;;;;;;;;;23.70;32.70;;;;;;8365837;28;19924;-48
2022/04/24 15:27:55;;;;;;;;;;;23.70;32.70;;;;;;8366276;28;19923;-46
2022/04/24 15:31:56;;;;;;;;;;;23.70;32.70;;;;;;8365948;28;20366;-47
2022/04/24 15:35:56;;;;;;;;;;;23.70;32.70;;;;;;8365342;28;20432;-48
2022/04/24 15:39:58;;;;;;;;;;;23.70;32.70;;;;;;8366283;28;19913;-47
2022/04/24 15:43:59;;;;;;;;;;;23.70;32.70;;;;;;8365559;28;19956;-49
2022/04/24 15:48:00;;;;;;;;;;;23.70;32.70;;;;;;8365093;28;20377;-48
2022/04/24 15:52:01;;;;;;;;;;;23.70;32.70;;;;;;8365081;28;20014;-46
2022/04/24 15:56:01;;;;;;;;;;;23.70;32.70;;;;;;8364833;28;20293;-46
2022/04/24 16:00:04;;;;;;;;;;;23.70;32.70;;;;;;8365038;28;19917;-46
2022/04/24 16:04:05;;;;;;;;;;;23.80;32.80;;;;;;8364868;28;19927;-46
2022/04/24 16:08:05;;;;;;;;;;;23.70;32.70;;;;;;8364372;28;19956;-47
2022/04/24 16:12:09;;;;;;;;;;;23.70;32.70;;;;;;8337395;28;19940;-46
2022/04/24 16:16:09;;;;;;;;;;;23.70;32.70;;;;;;8331513;28;20279;-46
2022/04/24 16:20:12;;;;;;;;;;;23.70;32.80;;;;;;8331808;28;19949;-49
2022/04/24 16:24:12;;;;;;;;;;;23.70;32.80;;;;;;8330981;28;19917;-46
2022/04/24 16:28:13;;;;;;;;;;;23.70;32.80;;;;;;8331470;28;19928;-47
2022/04/24 16:32:14;;;;;;;;;;;23.70;32.70;;;;;;8331178;28;19964;-47
2022/04/24 16:36:14;;;;;;;;;;;23.80;32.80;;;;;;8330638;28;19954;-47
2022/04/24 16:40:15;;;;;;;;;;;23.80;32.80;;;;;;8331527;28;20377;-46
2022/04/24 16:44:16;;;;;;;;;;;23.70;32.80;;;;;;8330770;28;20005;-46
2022/04/24 16:48:16;;;;;;;;;;;23.80;32.90;;;;;;8330317;28;19940;-47
2022/04/24 17:00:56;;;;;;;;;;;23.70;32.80;;;;;;8331237;28;19924;-46
2022/04/24 17:04:56;;;;;;;;;;;23.80;32.80;;;;;;8330265;28;20008;-46
2022/04/24 17:08:57;;;;;;;;;;;23.80;32.80;;;;;;8329787;28;20401;-48
2022/04/24 17:12:57;;;;;;;;;;;23.80;32.80;;;;;;8330132;28;19995;-46
2022/04/24 17:16:58;;;;;;;;;;;23.70;32.80;;;;;;8330227;28;19924;-46
2022/04/24 17:21:01;;;;;;;;;;;23.80;32.80;;;;;;8329174;28;19921;-48
2022/04/24 17:25:02;;;;;;;;;;;23.80;32.80;;;;;;8330337;28;20000;-46
2022/04/24 17:29:03;;;;;;;;;;;23.70;32.80;;;;;;8329812;28;19924;-48
2022/04/24 17:33:03;;;;;;;;;;;23.80;32.90;;;;;;8329361;28;20019;-46
2022/04/24 17:37:04;;;;;;;;;;;23.70;32.80;;;;;;8330026;28;19925;-47
2022/04/24 17:41:04;;;;;;;;;;;23.70;32.80;;;;;;8329914;28;19964;-49
2022/04/24 17:45:06;;;;;;;;;;;23.70;32.80;;;;;;8329377;28;20051;-47
2022/04/24 17:49:06;;;;;;;;;;;23.80;32.90;;;;;;8329923;28;19917;-49
2022/04/24 17:53:07;;;;;;;;;;;23.70;32.80;;;;;;8329684;28;20386;-47
2022/04/24 17:57:07;;;;;;;;;;;23.80;32.90;;;;;;8311291;28;20334;-48
2022/04/24 18:01:09;;;;;;;;;;;23.70;32.90;;;;;;8329665;28;19917;-48
2022/04/24 18:05:10;;;;;;;;;;;23.70;32.90;;;;;;8329312;28;19964;-47
2022/04/24 18:09:10;;;;;;;;;;;23.70;32.90;;;;;;8328773;28;19917;-49
2022/04/24 18:13:11;;;;;;;;;;;23.70;32.90;;;;;;8329355;28;20018;-46
2022/04/24 18:17:12;;;;;;;;;;;23.70;32.90;;;;;;8328948;28;19925;-47
2022/04/24 18:21:12;;;;;;;;;;;23.70;33.50;;;;;;8328877;28;20015;-46
2022/04/24 18:25:13;;;;;;;;;;;23.70;32.90;;;;;;8329309;28;19952;-49
2022/04/24 18:29:13;;;;;;;;;;;23.70;32.90;;;;;;8330099;28;19948;-48
2022/04/24 18:33:14;;;;;;;;;;;23.70;32.90;;;;;;8334582;28;20445;-46
2022/04/24 18:41:33;;;;;;;;;;;23.70;32.90;;;;;;8334624;28;20401;-48
2022/04/24 18:45:33;;;;;;;;;;;23.70;32.90;;;;;;8334581;28;19952;-47
2022/04/24 18:49:34;;;;;;;;;;;23.70;33.00;;;;;;8334846;28;20008;-46
2022/04/24 18:53:34;;;;;;;;;;;23.70;33.00;;;;;;8333882;28;19926;-47
2022/04/24 18:57:35;;;;;;;;;;;23.70;33.00;;;;;;8334093;28;20026;-47
2022/04/24 19:01:35;;;;;;;;;;;23.70;33.00;;;;;;8334346;28;19921;-46
2022/04/24 19:14:14;;;;;;;;;;;23.70;33.00;;;;;;8366964;28;19927;-46
2022/04/24 19:18:14;;;;;;;;;;;23.70;33.00;;;;;;8366132;28;19925;-47
2022/04/24 19:22:15;;;;;;;;;;;23.70;33.00;;;;;;8366733;28;19919;-49
2022/04/24 19:26:15;;;;;;;;;;;23.70;33.00;;;;;;8366671;28;19924;-47
2022/04/24 19:30:16;;;;;;;;;;;23.70;33.00;;;;;;8365837;28;19916;-46
2022/04/24 19:34:19;;;;;;;;;;;23.70;33.00;;;;;;8366049;28;19984;-48
2022/04/24 19:38:19;;;;;;;;;;;23.70;33.00;;;;;;8365941;28;19933;-47
2022/04/24 19:42:20;;;;;;;;;;;23.70;33.00;;;;;;8364802;28;19917;-46
2022/04/24 19:46:20;;;;;;;;;;;23.70;33.00;;;;;;8366013;28;19921;-47
2022/04/24 19:50:21;;;;;;;;;;;23.70;33.00;;;;;;8365812;28;20003;-46
2022/04/24 19:54:22;;;;;;;;;;;23.70;33.00;;;;;;8365077;28;19916;-47
2022/04/24 19:58:23;;;;;;;;;;;23.70;33.00;;;;;;8365431;28;20386;-46
2022/04/24 20:02:24;;;;;;;;;;;23.70;33.00;;;;;;8365242;28;19927;-45
2022/04/24 20:06:24;;;;;;;;;;;23.70;33.00;;;;;;8364818;28;20292;-48
2022/04/24 20:10:25;;;;;;;;;;;23.80;33.10;;;;;;8365063;28;19916;-45
2022/04/24 20:14:26;;;;;;;;;;;23.70;33.00;;;;;;8364772;28;20381;-46
2022/04/24 20:18:27;;;;;;;;;;;23.70;33.00;;;;;;8364211;28;19932;-46
2022/04/24 20:22:27;;;;;;;;;;;23.80;33.10;;;;;;8364586;28;19916;-47
2022/04/24 20:26:29;;;;;;;;;;;23.70;33.00;;;;;;8364797;28;20425;-47
2022/04/24 20:30:29;;;;;;;;;;;23.70;33.00;;;;;;8363801;28;19963;-46
2022/04/24 20:34:30;;;;;;;;;;;23.70;33.00;;;;;;8364300;28;19917;-48
2022/04/24 20:38:31;;;;;;;;;;;23.70;33.10;;;;;;8363686;28;19931;-47
2022/04/24 20:42:31;;;;;;;;;;;23.70;33.10;;;;;;8363965;28;19920;-45
2022/04/24 20:46:32;;;;;;;;;;;23.60;33.10;;;;;;8364075;28;20289;-46
2022/04/24 20:50:33;;;;;;;;;;;23.70;33.20;;;;;;8363451;28;19912;-45
2022/04/24 20:54:33;;;;;;;;;;;23.60;33.20;;;;;;8363296;28;20369;-47
2022/04/24 20:58:34;;;;;;;;;;;23.60;33.20;;;;;;8363684;28;19956;-46
2022/04/24 21:02:34;;;;;;;;;;;23.60;33.30;;;;;;8363246;28;19923;-46
2022/04/24 21:06:35;;;;;;;;;;;23.50;33.20;;;;;;8363199;28;19920;-46
2022/04/24 21:10:35;;;;;;;;;;;23.50;33.30;;;;;;8363261;28;19955;-47
2022/04/24 21:14:37;;;;;;;;;;;23.50;33.30;;;;;;8362804;28;19956;-44
2022/04/24 21:18:37;;;;;;;;;;;23.40;33.30;;;;;;8363334;28;19929;-45
2022/04/24 21:22:38;;;;;;;;;;;23.40;33.30;;;;;;8363181;28;19958;-48
2022/04/24 21:26:38;;;;;;;;;;;23.40;33.30;;;;;;8362729;28;19923;-46
2022/04/24 21:30:39;;;;;;;;;;;23.40;33.30;;;;;;8362856;28;19916;-49
2022/04/24 21:34:39;;;;;;;;;;;23.30;33.30;;;;;;8362784;28;19993;-46
2022/04/24 21:38:43;;;;;;;;;;;23.30;33.30;;;;;;8362213;28;19940;-47
2022/04/24 21:42:43;;;;;;;;;;;23.30;33.30;;;;;;8363239;28;19920;-45
2022/04/24 21:46:44;;;;;;;;;;;23.20;33.30;;;;;;8362803;28;19921;-45
2022/04/24 21:50:44;;;;;;;;;;;23.20;33.30;;;;;;8362423;28;19920;-44
2022/04/24 21:54:45;;;;;;;;;;;23.20;33.40;;;;;;8362911;28;19920;-45
2022/04/24 21:58:45;;;;;;;;;;;23.10;33.40;;;;;;8362556;28;19936;-45
2022/04/24 22:07:05;;;;;;;;;;;23.10;33.40;;;;;;8335086;28;20352;-45
2022/04/24 22:11:05;;;;;;;;;;;23.00;33.40;;;;;;8335818;28;19917;-45
2022/04/24 22:15:06;;;;;;;;;;;23.00;33.40;;;;;;8335260;28;19918;-45
2022/04/24 22:19:07;;;;;;;;;;;22.90;33.50;;;;;;8335314;28;19979;-44
2022/04/24 22:27:27;;;;;;;;;;;22.90;33.60;;;;;;8335005;28;19923;-47
2022/04/24 22:31:28;;;;;;;;;;;22.90;33.60;;;;;;8362484;28;19923;-46
2022/04/24 22:35:28;;;;;;;;;;;22.80;33.50;;;;;;8367940;28;20400;-45
2022/04/24 22:39:29;;;;;;;;;;;22.80;33.50;;;;;;8367361;28;19963;-45
2022/04/24 22:43:30;;;;;;;;;;;22.80;33.50;;;;;;8367662;28;20389;-46
2022/04/24 22:47:30;;;;;;;;;;;22.80;33.50;;;;;;8367379;28;20274;-45
2022/04/24 22:51:31;;;;;;;;;;;22.80;33.50;;;;;;8367337;28;20000;-45
2022/04/24 22:55:31;;;;;;;;;;;22.70;33.50;;;;;;8367274;28;19916;-45
2022/04/24 22:59:32;;;;;;;;;;;22.70;33.50;;;;;;8366877;28;20317;-45
2022/04/24 23:03:32;;;;;;;;;;;22.70;33.50;;;;;;8367127;28;19921;-46
2022/04/24 23:07:33;;;;;;;;;;;22.70;33.60;;;;;;8367642;28;19924;-45
2022/04/24 23:11:33;;;;;;;;;;;22.60;33.60;;;;;;8366463;28;19986;-46
2022/04/24 23:15:34;;;;;;;;;;;22.60;33.60;;;;;;8365849;28;19921;-45
2022/04/24 23:19:34;;;;;;;;;;;22.50;33.50;;;;;;8366557;28;19935;-46
2022/04/24 23:23:35;;;;;;;;;;;22.50;33.60;;;;;;8366375;28;19975;-46
2022/04/24 23:27:35;;;;;;;;;;;22.50;33.60;;;;;;8366744;28;19916;-46
2022/04/24 23:31:35;;;;;;;;;;;22.50;33.60;;;;;;8366197;28;19916;-44
2022/04/24 23:35:36;;;;;;;;;;;22.50;33.60;;;;;;8365615;28;19917;-45
2022/04/24 23:39:38;;;;;;;;;;;22.50;33.70;;;;;;8365823;28;19932;-45
2022/04/24 23:43:40;;;;;;;;;;;22.50;33.60;;;;;;8366209;28;20047;-45
2022/04/24 23:47:40;;;;;;;;;;;22.40;33.60;;;;;;8347245;28;19924;-46
2022/04/24 23:51:41;;;;;;;;;;;22.40;33.60;;;;;;8365558;28;19923;-46
2022/04/24 23:55:41;;;;;;;;;;;22.40;33.70;;;;;;8365457;28;19917;-47
2022/04/24 23:59:42;;;;;;;;;;;22.40;33.70;;;;;;8364864;28;19924;-45
